sensor_id;sensor_type;location;lat;lon;timestamp;P1;durP1;ratioP1;P2;durP2;ratioP2
211;SDS011;16228;48.800;9.002;2023-04-03T00:00:59;4.13;;;3.80;;
211;SDS011;16228;48.800;9.002;2023-04-03T00:03:26;4.10;;;3.80;;
211;SDS011;16228;48.800;9.002;2023-04-03T00:05:54;4.47;;;3.57;;
211;SDS011;16228;48.800;9.002;2023-04-03T00:08:21;3.57;;;3.27;;
211;SDS011;16228;48.800;9.002;2023-04-03T00:10:48;3.60;;;2.93;;
211;SDS011;16228;48.800;9.002;2023-04-03T00:13:16;3.50;;;3.30;;
211;SDS011;16228;48.800;9.002;2023-04-03T00:15:43;5.77;;;5.20;;
211;SDS011;16228;48.800;9.002;2023-04-03T00:18:10;4.13;;;3.40;;
211;SDS011;16228;48.800;9.002;2023-04-03T00:20:37;3.90;;;3.60;;
211;SDS011;16228;48.800;9.002;2023-04-03T00:23:06;6.60;;;3.63;;
211;SDS011;16228;48.800;9.002;2023-04-03T00:25:33;3.90;;;3.43;;
211;SDS011;16228;48.800;9.002;2023-04-03T00:28:00;5.80;;;5.30;;
211;SDS011;16228;48.800;9.002;2023-04-03T00:30:27;3.80;;;3.50;;
211;SDS011;16228;48.800;9.002;2023-04-03T00:32:54;4.70;;;4.40;;
211;SDS011;16228;48.800;9.002;2023-04-03T00:35:21;4.93;;;4.43;;
211;SDS011;16228;48.800;9.002;2023-04-03T00:37:50;5.23;;;4.13;;
211;SDS011;16228;48.800;9.002;2023-04-03T00:40:19;3.37;;;3.07;;
211;SDS011;16228;48.800;9.002;2023-04-03T00:42:47;5.47;;;4.07;;
211;SDS011;16228;48.800;9.002;2023-04-03T00:45:23;5.23;;;4.83;;
211;SDS011;16228;48.800;9.002;2023-04-03T00:47:56;4.17;;;3.87;;
211;SDS011;16228;48.800;9.002;2023-04-03T00:50:25;4.40;;;4.07;;
211;SDS011;16228;48.800;9.002;2023-04-03T00:52:53;5.73;;;4.27;;
211;SDS011;16228;48.800;9.002;2023-04-03T00:55:22;4.00;;;3.60;;
211;SDS011;16228;48.800;9.002;2023-04-03T00:57:50;4.57;;;3.77;;
211;SDS011;16228;48.800;9.002;2023-04-03T01:00:19;4.57;;;4.27;;
211;SDS011;16228;48.800;9.002;2023-04-03T01:02:47;4.50;;;3.77;;
211;SDS011;16228;48.800;9.002;2023-04-03T01:05:15;4.47;;;3.73;;
211;SDS011;16228;48.800;9.002;2023-04-03T01:07:43;4.73;;;4.27;;
211;SDS011;16228;48.800;9.002;2023-04-03T01:10:12;5.07;;;4.20;;
211;SDS011;16228;48.800;9.002;2023-04-03T01:12:43;6.33;;;3.60;;
211;SDS011;16228;48.800;9.002;2023-04-03T01:15:12;6.43;;;5.90;;
211;SDS011;16228;48.800;9.002;2023-04-03T01:17:41;4.87;;;4.10;;
211;SDS011;16228;48.800;9.002;2023-04-03T01:23:15;5.03;;;4.07;;
211;SDS011;16228;48.800;9.002;2023-04-03T01:25:50;5.73;;;4.07;;
211;SDS011;16228;48.800;9.002;2023-04-03T01:28:22;4.63;;;4.03;;
211;SDS011;16228;48.800;9.002;2023-04-03T01:30:53;4.43;;;4.13;;
211;SDS011;16228;48.800;9.002;2023-04-03T01:33:26;4.80;;;4.03;;
211;SDS011;16228;48.800;9.002;2023-04-03T01:35:53;5.73;;;4.57;;
211;SDS011;16228;48.800;9.002;2023-04-03T01:38:30;3.93;;;3.47;;
211;SDS011;16228;48.800;9.002;2023-04-03T01:40:58;4.27;;;3.97;;
211;SDS011;16228;48.800;9.002;2023-04-03T01:43:25;4.77;;;3.90;;
211;SDS011;16228;48.800;9.002;2023-04-03T01:45:52;6.73;;;4.37;;
211;SDS011;16228;48.800;9.002;2023-04-03T01:48:20;4.63;;;4.20;;
211;SDS011;16228;48.800;9.002;2023-04-03T01:50:48;4.93;;;4.53;;
211;SDS011;16228;48.800;9.002;2023-04-03T01:53:15;4.57;;;4.13;;
211;SDS011;16228;48.800;9.002;2023-04-03T01:55:42;4.23;;;3.93;;
211;SDS011;16228;48.800;9.002;2023-04-03T01:58:09;5.33;;;3.90;;
211;SDS011;16228;48.800;9.002;2023-04-03T02:00:36;4.30;;;3.90;;
211;SDS011;16228;48.800;9.002;2023-04-03T02:03:03;6.43;;;3.90;;
211;SDS011;16228;48.800;9.002;2023-04-03T02:05:30;4.73;;;4.33;;
211;SDS011;16228;48.800;9.002;2023-04-03T02:07:58;4.10;;;3.80;;
211;SDS011;16228;48.800;9.002;2023-04-03T02:10:26;3.90;;;3.60;;
211;SDS011;16228;48.800;9.002;2023-04-03T02:12:53;5.27;;;4.07;;
211;SDS011;16228;48.800;9.002;2023-04-03T02:15:20;4.73;;;3.80;;
211;SDS011;16228;48.800;9.002;2023-04-03T02:17:47;4.90;;;4.40;;
211;SDS011;16228;48.800;9.002;2023-04-03T02:20:14;4.53;;;4.13;;
211;SDS011;16228;48.800;9.002;2023-04-03T02:22:41;4.80;;;4.30;;
211;SDS011;16228;48.800;9.002;2023-04-03T02:25:09;4.77;;;4.47;;
211;SDS011;16228;48.800;9.002;2023-04-03T02:27:36;4.63;;;4.23;;
211;SDS011;16228;48.800;9.002;2023-04-03T02:30:04;5.20;;;4.13;;
211;SDS011;16228;48.800;9.002;2023-04-03T02:32:32;4.03;;;3.73;;
211;SDS011;16228;48.800;9.002;2023-04-03T02:34:59;4.60;;;4.07;;
211;SDS011;16228;48.800;9.002;2023-04-03T02:37:26;4.63;;;4.13;;
211;SDS011;16228;48.800;9.002;2023-04-03T02:39:53;4.80;;;3.60;;
211;SDS011;16228;48.800;9.002;2023-04-03T02:42:21;4.27;;;3.80;;
211;SDS011;16228;48.800;9.002;2023-04-03T02:44:48;4.43;;;4.03;;
211;SDS011;16228;48.800;9.002;2023-04-03T02:47:15;4.53;;;4.10;;
211;SDS011;16228;48.800;9.002;2023-04-03T02:49:42;3.83;;;3.50;;
211;SDS011;16228;48.800;9.002;2023-04-03T02:52:11;4.23;;;3.90;;
211;SDS011;16228;48.800;9.002;2023-04-03T02:54:38;5.23;;;4.13;;
211;SDS011;16228;48.800;9.002;2023-04-03T02:57:05;4.73;;;4.17;;
211;SDS011;16228;48.800;9.002;2023-04-03T02:59:35;6.47;;;4.03;;
211;SDS011;16228;48.800;9.002;2023-04-03T03:02:05;4.60;;;4.20;;
211;SDS011;16228;48.800;9.002;2023-04-03T03:04:32;4.90;;;4.50;;
211;SDS011;16228;48.800;9.002;2023-04-03T03:06:59;5.60;;;5.10;;
211;SDS011;16228;48.800;9.002;2023-04-03T03:09:26;4.50;;;3.80;;
211;SDS011;16228;48.800;9.002;2023-04-03T03:11:54;5.20;;;4.20;;
211;SDS011;16228;48.800;9.002;2023-04-03T03:14:21;4.53;;;4.13;;
211;SDS011;16228;48.800;9.002;2023-04-03T03:16:50;4.30;;;4.00;;
211;SDS011;16228;48.800;9.002;2023-04-03T03:19:17;4.07;;;3.67;;
211;SDS011;16228;48.800;9.002;2023-04-03T03:21:43;4.47;;;4.07;;
211;SDS011;16228;48.800;9.002;2023-04-03T03:24:10;4.00;;;3.70;;
211;SDS011;16228;48.800;9.002;2023-04-03T03:26:38;4.00;;;3.70;;
211;SDS011;16228;48.800;9.002;2023-04-03T03:29:05;5.33;;;4.40;;
211;SDS011;16228;48.800;9.002;2023-04-03T03:31:32;6.83;;;6.23;;
211;SDS011;16228;48.800;9.002;2023-04-03T03:34:00;5.07;;;4.63;;
211;SDS011;16228;48.800;9.002;2023-04-03T03:36:27;4.40;;;4.00;;
211;SDS011;16228;48.800;9.002;2023-04-03T03:38:54;4.63;;;4.23;;
211;SDS011;16228;48.800;9.002;2023-04-03T03:41:21;3.57;;;3.27;;
211;SDS011;16228;48.800;9.002;2023-04-03T03:43:48;4.27;;;3.97;;
211;SDS011;16228;48.800;9.002;2023-04-03T03:46:15;4.70;;;4.30;;
211;SDS011;16228;48.800;9.002;2023-04-03T03:48:42;4.87;;;3.50;;
211;SDS011;16228;48.800;9.002;2023-04-03T03:51:10;3.93;;;3.53;;
211;SDS011;16228;48.800;9.002;2023-04-03T03:53:37;3.50;;;3.20;;
211;SDS011;16228;48.800;9.002;2023-04-03T03:56:04;4.37;;;3.50;;
211;SDS011;16228;48.800;9.002;2023-04-03T03:58:31;4.00;;;3.70;;
211;SDS011;16228;48.800;9.002;2023-04-03T04:01:00;3.27;;;3.07;;
211;SDS011;16228;48.800;9.002;2023-04-03T04:03:27;3.40;;;3.10;;
211;SDS011;16228;48.800;9.002;2023-04-03T04:05:54;3.93;;;3.57;;
211;SDS011;16228;48.800;9.002;2023-04-03T04:08:22;4.73;;;3.30;;
211;SDS011;16228;48.800;9.002;2023-04-03T04:10:50;3.10;;;2.80;;
211;SDS011;16228;48.800;9.002;2023-04-03T04:13:16;4.43;;;3.07;;
211;SDS011;16228;48.800;9.002;2023-04-03T04:15:43;4.23;;;3.03;;
211;SDS011;16228;48.800;9.002;2023-04-03T04:18:10;3.90;;;3.10;;
211;SDS011;16228;48.800;9.002;2023-04-03T04:20:37;3.10;;;2.80;;
211;SDS011;16228;48.800;9.002;2023-04-03T04:23:04;3.20;;;3.00;;
211;SDS011;16228;48.800;9.002;2023-04-03T04:25:33;3.97;;;3.00;;
211;SDS011;16228;48.800;9.002;2023-04-03T04:28:00;3.40;;;3.10;;
211;SDS011;16228;48.800;9.002;2023-04-03T04:30:27;3.70;;;3.27;;
211;SDS011;16228;48.800;9.002;2023-04-03T04:32:54;4.17;;;2.93;;
211;SDS011;16228;48.800;9.002;2023-04-03T04:35:21;3.10;;;2.73;;
211;SDS011;16228;48.800;9.002;2023-04-03T04:37:48;3.67;;;3.27;;
211;SDS011;16228;48.800;9.002;2023-04-03T04:40:15;3.87;;;3.03;;
211;SDS011;16228;48.800;9.002;2023-04-03T04:42:43;3.60;;;3.30;;
211;SDS011;16228;48.800;9.002;2023-04-03T04:45:10;3.67;;;3.37;;
211;SDS011;16228;48.800;9.002;2023-04-03T04:47:37;3.80;;;2.97;;
211;SDS011;16228;48.800;9.002;2023-04-03T04:50:05;4.87;;;3.30;;
211;SDS011;16228;48.800;9.002;2023-04-03T04:52:32;3.37;;;2.83;;
211;SDS011;16228;48.800;9.002;2023-04-03T04:54:59;3.40;;;3.10;;
211;SDS011;16228;48.800;9.002;2023-04-03T04:57:26;4.67;;;3.67;;
211;SDS011;16228;48.800;9.002;2023-04-03T04:59:55;5.20;;;3.27;;
211;SDS011;16228;48.800;9.002;2023-04-03T05:02:21;4.27;;;3.10;;
211;SDS011;16228;48.800;9.002;2023-04-03T05:04:48;4.17;;;2.97;;
211;SDS011;16228;48.800;9.002;2023-04-03T05:07:17;3.30;;;3.00;;
211;SDS011;16228;48.800;9.002;2023-04-03T05:09:44;3.93;;;2.53;;
211;SDS011;16228;48.800;9.002;2023-04-03T05:12:11;3.43;;;3.00;;
211;SDS011;16228;48.800;9.002;2023-04-03T05:14:38;3.27;;;2.97;;
211;SDS011;16228;48.800;9.002;2023-04-03T05:17:06;3.30;;;3.00;;
211;SDS011;16228;48.800;9.002;2023-04-03T05:19:33;2.97;;;2.50;;
211;SDS011;16228;48.800;9.002;2023-04-03T05:22:00;3.10;;;2.90;;
211;SDS011;16228;48.800;9.002;2023-04-03T05:24:27;3.23;;;2.70;;
211;SDS011;16228;48.800;9.002;2023-04-03T05:26:54;2.67;;;2.47;;
211;SDS011;16228;48.800;9.002;2023-04-03T05:29:21;3.50;;;2.70;;
211;SDS011;16228;48.800;9.002;2023-04-03T05:31:48;2.63;;;2.43;;
211;SDS011;16228;48.800;9.002;2023-04-03T05:34:17;2.83;;;2.50;;
211;SDS011;16228;48.800;9.002;2023-04-03T05:36:44;2.83;;;2.53;;
211;SDS011;16228;48.800;9.002;2023-04-03T05:39:11;3.00;;;2.43;;
211;SDS011;16228;48.800;9.002;2023-04-03T05:41:38;2.70;;;2.50;;
211;SDS011;16228;48.800;9.002;2023-04-03T05:44:05;2.53;;;2.33;;
211;SDS011;16228;48.800;9.002;2023-04-03T05:46:32;2.60;;;2.40;;
211;SDS011;16228;48.800;9.002;2023-04-03T05:48:59;3.10;;;2.80;;
211;SDS011;16228;48.800;9.002;2023-04-03T05:51:29;2.67;;;2.47;;
211;SDS011;16228;48.800;9.002;2023-04-03T05:53:59;2.50;;;2.30;;
211;SDS011;16228;48.800;9.002;2023-04-03T05:56:32;3.67;;;2.60;;
211;SDS011;16228;48.800;9.002;2023-04-03T05:58:59;3.87;;;2.30;;
211;SDS011;16228;48.800;9.002;2023-04-03T06:01:26;3.50;;;2.50;;
211;SDS011;16228;48.800;9.002;2023-04-03T06:03:53;4.17;;;3.20;;
211;SDS011;16228;48.800;9.002;2023-04-03T06:06:20;2.93;;;2.63;;
211;SDS011;16228;48.800;9.002;2023-04-03T06:08:49;2.50;;;2.30;;
211;SDS011;16228;48.800;9.002;2023-04-03T06:11:17;2.57;;;2.37;;
211;SDS011;16228;48.800;9.002;2023-04-03T06:13:43;3.07;;;2.60;;
211;SDS011;16228;48.800;9.002;2023-04-03T06:16:11;3.10;;;2.80;;
211;SDS011;16228;48.800;9.002;2023-04-03T06:18:40;4.53;;;3.00;;
211;SDS011;16228;48.800;9.002;2023-04-03T06:21:07;3.03;;;2.73;;
211;SDS011;16228;48.800;9.002;2023-04-03T06:23:34;3.77;;;2.47;;
211;SDS011;16228;48.800;9.002;2023-04-03T06:26:03;3.13;;;2.83;;
211;SDS011;16228;48.800;9.002;2023-04-03T06:28:30;2.83;;;2.60;;
211;SDS011;16228;48.800;9.002;2023-04-03T06:30:57;4.80;;;2.70;;
211;SDS011;16228;48.800;9.002;2023-04-03T06:33:24;3.73;;;2.60;;
211;SDS011;16228;48.800;9.002;2023-04-03T06:35:55;3.63;;;2.83;;
211;SDS011;16228;48.800;9.002;2023-04-03T06:38:23;2.47;;;2.23;;
211;SDS011;16228;48.800;9.002;2023-04-03T06:40:50;3.90;;;2.27;;
211;SDS011;16228;48.800;9.002;2023-04-03T06:43:19;3.30;;;2.93;;
211;SDS011;16228;48.800;9.002;2023-04-03T06:45:47;3.07;;;2.60;;
211;SDS011;16228;48.800;9.002;2023-04-03T06:48:14;4.77;;;3.40;;
211;SDS011;16228;48.800;9.002;2023-04-03T06:50:41;4.00;;;2.50;;
211;SDS011;16228;48.800;9.002;2023-04-03T06:53:08;2.53;;;2.10;;
211;SDS011;16228;48.800;9.002;2023-04-03T06:55:35;3.27;;;2.50;;
211;SDS011;16228;48.800;9.002;2023-04-03T06:58:02;4.57;;;2.43;;
211;SDS011;16228;48.800;9.002;2023-04-03T07:00:31;2.50;;;2.30;;
211;SDS011;16228;48.800;9.002;2023-04-03T07:02:58;4.13;;;2.47;;
211;SDS011;16228;48.800;9.002;2023-04-03T07:05:25;2.80;;;2.40;;
211;SDS011;16228;48.800;9.002;2023-04-03T07:07:52;3.40;;;2.50;;
211;SDS011;16228;48.800;9.002;2023-04-03T07:10:19;4.63;;;2.60;;
211;SDS011;16228;48.800;9.002;2023-04-03T07:12:46;3.67;;;2.50;;
211;SDS011;16228;48.800;9.002;2023-04-03T07:15:13;5.00;;;2.70;;
211;SDS011;16228;48.800;9.002;2023-04-03T07:17:41;2.97;;;2.67;;
211;SDS011;16228;48.800;9.002;2023-04-03T07:20:09;3.93;;;2.47;;
211;SDS011;16228;48.800;9.002;2023-04-03T07:22:36;4.70;;;3.03;;
211;SDS011;16228;48.800;9.002;2023-04-03T07:25:04;5.83;;;2.97;;
211;SDS011;16228;48.800;9.002;2023-04-03T07:27:32;4.57;;;2.40;;
211;SDS011;16228;48.800;9.002;2023-04-03T07:30:00;3.93;;;2.40;;
211;SDS011;16228;48.800;9.002;2023-04-03T07:32:26;3.27;;;2.50;;
211;SDS011;16228;48.800;9.002;2023-04-03T07:34:56;4.47;;;2.47;;
211;SDS011;16228;48.800;9.002;2023-04-03T07:37:23;4.40;;;2.50;;
211;SDS011;16228;48.800;9.002;2023-04-03T07:39:50;6.47;;;3.00;;
211;SDS011;16228;48.800;9.002;2023-04-03T07:42:17;4.33;;;2.87;;
211;SDS011;16228;48.800;9.002;2023-04-03T07:44:44;4.03;;;2.60;;
211;SDS011;16228;48.800;9.002;2023-04-03T07:47:11;3.87;;;2.47;;
211;SDS011;16228;48.800;9.002;2023-04-03T07:49:39;3.40;;;2.37;;
211;SDS011;16228;48.800;9.002;2023-04-03T07:52:08;6.50;;;3.00;;
211;SDS011;16228;48.800;9.002;2023-04-03T07:54:35;3.43;;;2.27;;
211;SDS011;16228;48.800;9.002;2023-04-03T07:57:02;3.83;;;2.83;;
211;SDS011;16228;48.800;9.002;2023-04-03T07:59:30;3.83;;;2.70;;
211;SDS011;16228;48.800;9.002;2023-04-03T08:01:57;4.57;;;3.00;;
211;SDS011;16228;48.800;9.002;2023-04-03T08:04:24;6.13;;;2.60;;
211;SDS011;16228;48.800;9.002;2023-04-03T08:06:51;4.57;;;2.50;;
211;SDS011;16228;48.800;9.002;2023-04-03T08:09:19;3.33;;;2.80;;
211;SDS011;16228;48.800;9.002;2023-04-03T08:11:47;3.63;;;3.07;;
211;SDS011;16228;48.800;9.002;2023-04-03T08:14:14;5.67;;;2.60;;
211;SDS011;16228;48.800;9.002;2023-04-03T08:16:45;3.40;;;2.60;;
211;SDS011;16228;48.800;9.002;2023-04-03T08:19:13;4.03;;;3.10;;
211;SDS011;16228;48.800;9.002;2023-04-03T08:21:40;6.27;;;2.87;;
211;SDS011;16228;48.800;9.002;2023-04-03T08:24:08;4.80;;;2.93;;
211;SDS011;16228;48.800;9.002;2023-04-03T08:26:36;4.53;;;2.53;;
211;SDS011;16228;48.800;9.002;2023-04-03T08:29:03;3.50;;;2.40;;
211;SDS011;16228;48.800;9.002;2023-04-03T08:31:30;4.30;;;2.53;;
211;SDS011;16228;48.800;9.002;2023-04-03T08:33:57;4.93;;;2.57;;
211;SDS011;16228;48.800;9.002;2023-04-03T08:36:25;3.57;;;2.80;;
211;SDS011;16228;48.800;9.002;2023-04-03T08:38:53;4.87;;;3.30;;
211;SDS011;16228;48.800;9.002;2023-04-03T08:41:24;4.00;;;2.57;;
211;SDS011;16228;48.800;9.002;2023-04-03T08:44:00;3.60;;;2.60;;
211;SDS011;16228;48.800;9.002;2023-04-03T08:46:40;5.53;;;2.80;;
211;SDS011;16228;48.800;9.002;2023-04-03T08:49:18;4.63;;;2.87;;
211;SDS011;16228;48.800;9.002;2023-04-03T08:51:50;3.17;;;2.10;;
211;SDS011;16228;48.800;9.002;2023-04-03T08:54:23;4.40;;;2.60;;
211;SDS011;16228;48.800;9.002;2023-04-03T08:56:54;4.40;;;2.30;;
211;SDS011;16228;48.800;9.002;2023-04-03T08:59:26;3.83;;;2.40;;
211;SDS011;16228;48.800;9.002;2023-04-03T09:01:55;3.93;;;2.90;;
211;SDS011;16228;48.800;9.002;2023-04-03T09:04:24;3.17;;;2.43;;
211;SDS011;16228;48.800;9.002;2023-04-03T09:06:55;4.63;;;2.20;;
211;SDS011;16228;48.800;9.002;2023-04-03T09:09:29;3.77;;;2.60;;
211;SDS011;16228;48.800;9.002;2023-04-03T09:12:00;3.13;;;2.33;;
211;SDS011;16228;48.800;9.002;2023-04-03T09:14:38;3.27;;;2.50;;
211;SDS011;16228;48.800;9.002;2023-04-03T09:17:10;3.43;;;2.27;;
211;SDS011;16228;48.800;9.002;2023-04-03T09:19:45;2.80;;;2.10;;
211;SDS011;16228;48.800;9.002;2023-04-03T09:22:21;2.43;;;2.23;;
211;SDS011;16228;48.800;9.002;2023-04-03T09:24:52;3.87;;;3.23;;
211;SDS011;16228;48.800;9.002;2023-04-03T09:27:25;2.37;;;2.10;;
211;SDS011;16228;48.800;9.002;2023-04-03T09:29:55;4.60;;;2.50;;
211;SDS011;16228;48.800;9.002;2023-04-03T09:32:25;3.73;;;2.23;;
211;SDS011;16228;48.800;9.002;2023-04-03T09:34:53;8.90;;;2.60;;
211;SDS011;16228;48.800;9.002;2023-04-03T09:37:36;4.33;;;2.10;;
211;SDS011;16228;48.800;9.002;2023-04-03T09:40:06;4.37;;;1.87;;
211;SDS011;16228;48.800;9.002;2023-04-03T09:42:55;3.60;;;2.27;;
211;SDS011;16228;48.800;9.002;2023-04-03T09:45:26;3.50;;;2.30;;
211;SDS011;16228;48.800;9.002;2023-04-03T09:48:07;3.40;;;2.20;;
211;SDS011;16228;48.800;9.002;2023-04-03T09:50:35;5.10;;;2.30;;
211;SDS011;16228;48.800;9.002;2023-04-03T09:53:06;3.43;;;2.43;;
211;SDS011;16228;48.800;9.002;2023-04-03T09:55:51;2.67;;;2.07;;
211;SDS011;16228;48.800;9.002;2023-04-03T09:58:23;2.80;;;2.03;;
211;SDS011;16228;48.800;9.002;2023-04-03T10:00:55;4.10;;;2.20;;
211;SDS011;16228;48.800;9.002;2023-04-03T10:03:24;2.63;;;2.03;;
211;SDS011;16228;48.800;9.002;2023-04-03T10:05:54;4.13;;;2.20;;
211;SDS011;16228;48.800;9.002;2023-04-03T10:08:24;3.30;;;2.00;;
211;SDS011;16228;48.800;9.002;2023-04-03T10:11:07;1.83;;;1.47;;
211;SDS011;16228;48.800;9.002;2023-04-03T10:13:37;2.70;;;1.73;;
211;SDS011;16228;48.800;9.002;2023-04-03T10:16:18;5.83;;;2.10;;
211;SDS011;16228;48.800;9.002;2023-04-03T10:18:50;3.67;;;2.13;;
211;SDS011;16228;48.800;9.002;2023-04-03T10:21:32;3.00;;;2.20;;
211;SDS011;16228;48.800;9.002;2023-04-03T10:24:06;3.17;;;1.73;;
211;SDS011;16228;48.800;9.002;2023-04-03T10:26:39;2.87;;;2.10;;
211;SDS011;16228;48.800;9.002;2023-04-03T10:29:16;2.90;;;1.80;;
211;SDS011;16228;48.800;9.002;2023-04-03T10:31:55;6.23;;;1.93;;
211;SDS011;16228;48.800;9.002;2023-04-03T10:34:28;2.33;;;1.77;;
211;SDS011;16228;48.800;9.002;2023-04-03T10:37:01;3.10;;;1.57;;
211;SDS011;16228;48.800;9.002;2023-04-03T10:39:39;2.20;;;1.63;;
211;SDS011;16228;48.800;9.002;2023-04-03T10:42:14;2.03;;;1.70;;
211;SDS011;16228;48.800;9.002;2023-04-03T10:44:50;3.23;;;1.73;;
211;SDS011;16228;48.800;9.002;2023-04-03T10:47:30;4.47;;;1.60;;
211;SDS011;16228;48.800;9.002;2023-04-03T10:50:06;1.50;;;1.40;;
211;SDS011;16228;48.800;9.002;2023-04-03T10:52:56;2.30;;;1.67;;
211;SDS011;16228;48.800;9.002;2023-04-03T10:55:31;2.20;;;1.70;;
211;SDS011;16228;48.800;9.002;2023-04-03T10:58:03;3.97;;;2.00;;
211;SDS011;16228;48.800;9.002;2023-04-03T11:00:35;3.30;;;1.70;;
211;SDS011;16228;48.800;9.002;2023-04-03T11:03:08;3.27;;;1.70;;
211;SDS011;16228;48.800;9.002;2023-04-03T11:05:41;4.23;;;1.70;;
211;SDS011;16228;48.800;9.002;2023-04-03T11:08:11;4.17;;;1.93;;
211;SDS011;16228;48.800;9.002;2023-04-03T11:10:44;1.80;;;1.60;;
211;SDS011;16228;48.800;9.002;2023-04-03T11:13:15;2.20;;;1.90;;
211;SDS011;16228;48.800;9.002;2023-04-03T11:15:46;2.20;;;1.70;;
211;SDS011;16228;48.800;9.002;2023-04-03T11:18:15;2.70;;;1.90;;
211;SDS011;16228;48.800;9.002;2023-04-03T11:20:47;3.37;;;1.70;;
211;SDS011;16228;48.800;9.002;2023-04-03T11:23:24;3.93;;;1.93;;
211;SDS011;16228;48.800;9.002;2023-04-03T11:25:53;2.00;;;1.60;;
211;SDS011;16228;48.800;9.002;2023-04-03T11:28:25;2.73;;;1.70;;
211;SDS011;16228;48.800;9.002;2023-04-03T11:30:53;4.13;;;1.87;;
211;SDS011;16228;48.800;9.002;2023-04-03T11:33:32;1.80;;;1.70;;
211;SDS011;16228;48.800;9.002;2023-04-03T11:36:08;2.53;;;1.53;;
211;SDS011;16228;48.800;9.002;2023-04-03T11:38:41;4.80;;;1.80;;
211;SDS011;16228;48.800;9.002;2023-04-03T11:41:10;1.97;;;1.73;;
211;SDS011;16228;48.800;9.002;2023-04-03T11:43:41;1.47;;;1.37;;
211;SDS011;16228;48.800;9.002;2023-04-03T11:46:09;2.53;;;1.40;;
211;SDS011;16228;48.800;9.002;2023-04-03T11:48:49;2.23;;;1.67;;
211;SDS011;16228;48.800;9.002;2023-04-03T11:54:34;1.83;;;1.63;;
211;SDS011;16228;48.800;9.002;2023-04-03T12:03:32;1.67;;;1.40;;
211;SDS011;16228;48.800;9.002;2023-04-03T12:09:26;2.67;;;1.60;;
211;SDS011;16228;48.800;9.002;2023-04-03T12:12:22;1.93;;;1.50;;
211;SDS011;16228;48.800;9.002;2023-04-03T12:14:54;1.40;;;1.30;;
211;SDS011;16228;48.800;9.002;2023-04-03T12:17:22;4.63;;;1.73;;
211;SDS011;16228;48.800;9.002;2023-04-03T12:19:53;4.40;;;2.03;;
211;SDS011;16228;48.800;9.002;2023-04-03T12:22:20;1.87;;;1.50;;
211;SDS011;16228;48.800;9.002;2023-04-03T12:24:49;2.80;;;1.43;;
211;SDS011;16228;48.800;9.002;2023-04-03T12:27:21;4.27;;;1.57;;
211;SDS011;16228;48.800;9.002;2023-04-03T12:29:51;6.30;;;1.83;;
211;SDS011;16228;48.800;9.002;2023-04-03T12:32:34;3.17;;;1.53;;
211;SDS011;16228;48.800;9.002;2023-04-03T12:35:14;4.87;;;1.90;;
211;SDS011;16228;48.800;9.002;2023-04-03T12:40:58;2.60;;;1.63;;
211;SDS011;16228;48.800;9.002;2023-04-03T12:43:50;3.00;;;1.67;;
211;SDS011;16228;48.800;9.002;2023-04-03T12:46:35;4.10;;;1.30;;
211;SDS011;16228;48.800;9.002;2023-04-03T12:49:12;3.10;;;1.50;;
211;SDS011;16228;48.800;9.002;2023-04-03T12:51:48;2.40;;;1.43;;
211;SDS011;16228;48.800;9.002;2023-04-03T12:54:16;2.47;;;1.30;;
211;SDS011;16228;48.800;9.002;2023-04-03T12:56:48;1.67;;;1.20;;
211;SDS011;16228;48.800;9.002;2023-04-03T12:59:16;2.67;;;1.50;;
211;SDS011;16228;48.800;9.002;2023-04-03T13:01:53;2.73;;;1.70;;
211;SDS011;16228;48.800;9.002;2023-04-03T13:04:20;2.97;;;1.40;;
211;SDS011;16228;48.800;9.002;2023-04-03T13:06:48;2.33;;;1.40;;
211;SDS011;16228;48.800;9.002;2023-04-03T13:09:19;3.80;;;1.30;;
211;SDS011;16228;48.800;9.002;2023-04-03T13:11:50;3.83;;;1.83;;
211;SDS011;16228;48.800;9.002;2023-04-03T13:14:21;2.23;;;1.60;;
211;SDS011;16228;48.800;9.002;2023-04-03T13:16:54;3.80;;;1.87;;
211;SDS011;16228;48.800;9.002;2023-04-03T13:19:22;3.57;;;1.60;;
211;SDS011;16228;48.800;9.002;2023-04-03T13:21:51;2.30;;;1.77;;
211;SDS011;16228;48.800;9.002;2023-04-03T13:24:25;3.53;;;1.97;;
211;SDS011;16228;48.800;9.002;2023-04-03T13:26:55;4.60;;;1.40;;
211;SDS011;16228;48.800;9.002;2023-04-03T13:29:26;2.43;;;1.40;;
211;SDS011;16228;48.800;9.002;2023-04-03T13:31:55;2.20;;;1.70;;
211;SDS011;16228;48.800;9.002;2023-04-03T13:34:23;2.73;;;1.50;;
211;SDS011;16228;48.800;9.002;2023-04-03T13:36:56;2.63;;;1.70;;
211;SDS011;16228;48.800;9.002;2023-04-03T13:39:26;2.37;;;1.60;;
211;SDS011;16228;48.800;9.002;2023-04-03T13:41:56;2.73;;;1.43;;
211;SDS011;16228;48.800;9.002;2023-04-03T13:44:31;2.63;;;1.47;;
211;SDS011;16228;48.800;9.002;2023-04-03T13:47:01;3.13;;;1.50;;
211;SDS011;16228;48.800;9.002;2023-04-03T13:49:43;2.67;;;1.90;;
211;SDS011;16228;48.800;9.002;2023-04-03T13:52:21;2.80;;;1.60;;
211;SDS011;16228;48.800;9.002;2023-04-03T13:54:51;3.07;;;1.63;;
211;SDS011;16228;48.800;9.002;2023-04-03T13:57:21;2.33;;;1.50;;
211;SDS011;16228;48.800;9.002;2023-04-03T13:59:48;1.90;;;1.57;;
211;SDS011;16228;48.800;9.002;2023-04-03T14:02:17;3.73;;;1.50;;
211;SDS011;16228;48.800;9.002;2023-04-03T14:04:49;2.10;;;1.30;;
211;SDS011;16228;48.800;9.002;2023-04-03T14:07:21;3.80;;;1.63;;
211;SDS011;16228;48.800;9.002;2023-04-03T14:09:49;1.67;;;1.33;;
211;SDS011;16228;48.800;9.002;2023-04-03T14:12:17;2.20;;;1.53;;
211;SDS011;16228;48.800;9.002;2023-04-03T14:14:48;3.50;;;1.80;;
211;SDS011;16228;48.800;9.002;2023-04-03T14:17:16;1.67;;;1.30;;
211;SDS011;16228;48.800;9.002;2023-04-03T14:19:44;2.23;;;1.67;;
211;SDS011;16228;48.800;9.002;2023-04-03T14:22:14;1.97;;;1.70;;
211;SDS011;16228;48.800;9.002;2023-04-03T14:24:43;2.40;;;1.47;;
211;SDS011;16228;48.800;9.002;2023-04-03T14:27:14;1.90;;;1.50;;
211;SDS011;16228;48.800;9.002;2023-04-03T14:29:43;2.27;;;1.53;;
211;SDS011;16228;48.800;9.002;2023-04-03T14:32:13;2.77;;;1.80;;
211;SDS011;16228;48.800;9.002;2023-04-03T14:34:41;2.33;;;1.53;;
211;SDS011;16228;48.800;9.002;2023-04-03T14:37:10;2.77;;;1.63;;
211;SDS011;16228;48.800;9.002;2023-04-03T14:39:39;3.53;;;1.60;;
211;SDS011;16228;48.800;9.002;2023-04-03T14:42:10;3.30;;;1.40;;
211;SDS011;16228;48.800;9.002;2023-04-03T14:44:39;3.17;;;1.83;;
211;SDS011;16228;48.800;9.002;2023-04-03T14:47:09;3.53;;;1.70;;
211;SDS011;16228;48.800;9.002;2023-04-03T14:49:38;2.27;;;1.70;;
211;SDS011;16228;48.800;9.002;2023-04-03T14:52:05;2.43;;;1.77;;
211;SDS011;16228;48.800;9.002;2023-04-03T14:54:32;2.73;;;1.87;;
211;SDS011;16228;48.800;9.002;2023-04-03T14:57:00;3.50;;;1.87;;
211;SDS011;16228;48.800;9.002;2023-04-03T14:59:28;2.23;;;1.60;;
211;SDS011;16228;48.800;9.002;2023-04-03T15:01:56;1.60;;;1.30;;
211;SDS011;16228;48.800;9.002;2023-04-03T15:04:23;3.37;;;1.60;;
211;SDS011;16228;48.800;9.002;2023-04-03T15:06:52;2.57;;;1.50;;
211;SDS011;16228;48.800;9.002;2023-04-03T15:09:20;3.37;;;2.00;;
211;SDS011;16228;48.800;9.002;2023-04-03T15:11:48;2.37;;;1.57;;
211;SDS011;16228;48.800;9.002;2023-04-03T15:14:16;4.00;;;2.10;;
211;SDS011;16228;48.800;9.002;2023-04-03T15:16:44;2.17;;;1.40;;
211;SDS011;16228;48.800;9.002;2023-04-03T15:19:11;3.30;;;1.47;;
211;SDS011;16228;48.800;9.002;2023-04-03T15:21:39;3.10;;;1.50;;
211;SDS011;16228;48.800;9.002;2023-04-03T15:24:08;1.73;;;1.30;;
211;SDS011;16228;48.800;9.002;2023-04-03T15:26:36;2.30;;;1.20;;
211;SDS011;16228;48.800;9.002;2023-04-03T15:29:03;2.57;;;1.50;;
211;SDS011;16228;48.800;9.002;2023-04-03T15:31:30;3.10;;;1.60;;
211;SDS011;16228;48.800;9.002;2023-04-03T15:33:58;2.37;;;1.47;;
211;SDS011;16228;48.800;9.002;2023-04-03T15:36:25;2.77;;;1.70;;
211;SDS011;16228;48.800;9.002;2023-04-03T15:38:52;1.87;;;1.40;;
211;SDS011;16228;48.800;9.002;2023-04-03T15:41:21;2.53;;;1.60;;
211;SDS011;16228;48.800;9.002;2023-04-03T15:43:48;1.93;;;1.70;;
211;SDS011;16228;48.800;9.002;2023-04-03T15:46:15;3.13;;;1.90;;
211;SDS011;16228;48.800;9.002;2023-04-03T15:48:42;2.03;;;1.30;;